Time;durP1;ratioP1;P1;durP2;ratioP2;P2;SDS_P1;SDS_P2;PMS_P1;PMS_P2;Temp;Humidity;BMP_temperature;BMP_pressure;BME280_temperature;BME280_humidity;BME280_pressure;Samples;Min_cycle;Max_cycle;Signal;HPM_P1;HPM_P2
2021/07/07 00:02:13;;;;;;;8.13;1.80;;;;;;;14.45;81.08;99528.84;5084362;28;20628;-77
2021/07/07 00:04:38;;;;;;;2.53;1.73;;;;;;;14.45;80.92;99517.84;5096103;28;20034;-77
2021/07/07 00:07:04;;;;;;;3.78;1.33;;;;;;;14.51;81.18;99526.00;5084327;28;20021;-78
2021/07/07 00:09:30;;;;;;;3.75;2.38;;;;;;;14.43;81.31;99542.13;5095407;28;20063;-77
2021/07/07 00:11:55;;;;;;;2.88;1.58;;;;;;;14.40;81.50;99530.94;5070750;28;20024;-77
2021/07/07 00:14:21;;;;;;;11.65;2.85;;;;;;;14.36;81.76;99541.75;5087878;28;20034;-77
2021/07/07 00:16:50;;;;;;;9.43;2.47;;;;;;;14.32;82.22;99527.00;5087193;28;20089;-77
2021/07/07 00:19:18;;;;;;;5.18;2.60;;;;;;;14.34;82.12;99522.00;5047810;28;20043;-78
2021/07/07 00:21:43;;;;;;;10.63;2.30;;;;;;;14.51;81.67;99542.50;5085187;28;20390;-78
2021/07/07 00:24:11;;;;;;;4.32;1.92;;;;;;;14.48;81.48;99538.44;5072249;28;20035;-79
2021/07/07 00:26:48;;;;;;;5.55;1.92;;;;;;;14.49;81.77;99534.56;5096617;28;20050;-80
2021/07/07 00:29:13;;;;;;;6.93;2.13;;;;;;;14.40;82.31;99525.44;5054040;28;20050;-77
2021/07/07 00:37:49;;;;;;;5.57;2.85;;;;;;;14.31;82.29;99506.13;5086965;28;20022;-77
2021/07/07 00:44:08;;;;;;;4.80;2.28;;;;;;;14.46;82.03;99519.50;5016408;28;20596;-77
2021/07/07 00:46:34;;;;;;;8.50;2.55;;;;;;;14.52;82.21;99522.13;5056043;28;20046;-78
2021/07/07 00:48:59;;;;;;;11.75;3.00;;;;;;;14.46;82.05;99535.19;5073486;28;20053;-77
2021/07/07 00:51:25;;;;;;;3.88;2.67;;;;;;;14.54;82.43;99536.38;5087590;28;20053;-78
2021/07/07 00:53:53;;;;;;;6.38;3.10;;;;;;;14.48;82.32;99528.25;5111419;28;20055;-78
2021/07/07 00:56:19;;;;;;;3.03;2.72;;;;;;;14.55;82.28;99527.00;5088271;28;20070;-79
2021/07/07 00:58:47;;;;;;;5.20;3.10;;;;;;;14.61;82.47;99542.22;5078615;28;20025;-79
2021/07/07 01:01:13;;;;;;;7.65;2.50;;;;;;;14.54;81.79;99525.34;5086357;28;20031;-79
2021/07/07 01:03:47;;;;;;;10.07;3.40;;;;;;;14.69;81.99;99544.28;5082329;28;20108;-79
2021/07/07 01:06:13;;;;;;;3.97;2.88;;;;;;;14.71;82.22;99554.97;5083738;28;20024;-79
2021/07/07 01:09:27;;;;;;;;;;;;;;;;;;;;;
2021/07/07 01:11:56;;;;;;;9.02;3.67;;;;;;;14.48;81.67;99511.75;5108148;28;20415;-78
2021/07/07 01:14:40;;;;;;;13.38;3.20;;;;;;;14.77;82.40;99550.94;5089953;28;20032;-77
2021/07/07 01:17:06;;;;;;;6.40;2.80;;;;;;;14.77;81.69;99540.72;5087743;28;20028;-78
2021/07/07 01:19:32;;;;;;;11.75;3.20;;;;;;;14.65;82.12;99521.25;5091676;28;20032;-76
2021/07/07 01:21:57;;;;;;;16.70;3.50;;;;;;;14.79;81.87;99538.50;5078781;28;20124;-78
2021/07/07 01:24:23;;;;;;;8.48;3.75;;;;;;;14.74;81.48;99524.84;5090674;28;20095;-79
2021/07/07 01:26:48;;;;;;;15.20;3.03;;;;;;;14.75;81.61;99522.94;5094243;28;20028;-79
2021/07/07 01:29:19;;;;;;;16.17;3.50;;;;;;;14.75;82.14;99520.97;5102704;28;20389;-79
2021/07/07 01:31:45;;;;;;;12.20;3.03;;;;;;;14.83;81.98;99547.75;5091272;28;20023;-79
2021/07/07 01:34:11;;;;;;;7.68;3.17;;;;;;;14.76;81.70;99527.28;5082703;28;20016;-79
2021/07/07 01:36:37;;;;;;;8.65;3.10;;;;;;;14.82;81.75;99537.84;5090363;28;20042;-78
2021/07/07 01:39:09;;;;;;;10.93;3.38;;;;;;;14.90;81.57;99541.78;5101567;28;20034;-78
2021/07/07 01:41:35;;;;;;;13.07;3.35;;;;;;;14.91;81.79;99539.81;5079219;28;20051;-80
2021/07/07 01:44:01;;;;;;;13.90;3.50;;;;;;;14.92;81.85;99546.97;5076147;28;20028;-79
2021/07/07 01:46:27;;;;;;;11.57;3.58;;;;;;;14.94;81.80;99540.03;5075911;28;20364;-79
2021/07/07 01:48:53;;;;;;;18.30;3.13;;;;;;;14.97;81.69;99546.84;5092468;28;20067;-81
2021/07/07 01:51:19;;;;;;;12.27;3.60;;;;;;;14.90;81.83;99532.72;5082635;28;20024;-81
2021/07/07 01:53:47;;;;;;;11.70;4.28;;;;;;;14.82;81.63;99534.28;5083481;28;20031;-77
2021/07/07 01:56:13;;;;;;;16.50;3.67;;;;;;;14.92;81.69;99547.78;5092836;28;20154;-78
2021/07/07 01:58:38;;;;;;;10.40;3.58;;;;;;;14.96;82.13;99547.97;5075289;28;20064;-80
2021/07/07 02:01:05;;;;;;;9.50;3.80;;;;;;;14.99;81.73;99541.81;5087280;28;20118;-80
2021/07/07 02:03:30;;;;;;;10.43;3.00;;;;;;;15.00;81.90;99543.44;5080296;28;20048;-78
2021/07/07 02:05:56;;;;;;;5.47;3.20;;;;;;;15.01;81.53;99534.88;5091973;28;20036;-79
2021/07/07 02:08:22;;;;;;;6.95;3.20;;;;;;;15.06;81.43;99535.88;5089927;28;20087;-78
2021/07/07 02:10:47;;;;;;;4.07;3.08;;;;;;;15.08;81.31;99547.34;5083399;28;20029;-78
2021/07/07 02:13:13;;;;;;;11.43;2.88;;;;;;;15.06;81.77;99536.66;5094585;28;20039;-78
2021/07/07 02:15:39;;;;;;;9.48;3.05;;;;;;;14.96;81.40;99525.94;5085754;28;20017;-77
2021/07/07 02:18:06;;;;;;;13.45;2.67;;;;;;;15.03;81.57;99542.81;5080462;28;20170;-77
2021/07/07 02:20:35;;;;;;;8.13;3.10;;;;;;;15.06;81.39;99542.16;5095541;28;20096;-77
2021/07/07 02:23:01;;;;;;;11.15;2.63;;;;;;;15.10;81.45;99548.66;5081611;28;20457;-77
2021/07/07 02:25:29;;;;;;;3.30;2.53;;;;;;;15.10;81.77;99548.66;5092192;28;20031;-77
2021/07/07 02:27:55;;;;;;;6.90;2.38;;;;;;;15.10;81.92;99548.66;5096726;28;20458;-79
2021/07/07 02:30:24;;;;;;;6.30;2.70;;;;;;;15.10;81.39;99543.16;5085939;28;20056;-78
2021/07/07 02:32:51;;;;;;;9.07;2.70;;;;;;;15.10;81.94;99545.91;5087775;28;20048;-77
2021/07/07 02:35:26;;;;;;;6.88;2.40;;;;;;;15.04;81.48;99546.38;5092991;28;20027;-79
2021/07/07 02:37:55;;;;;;;7.63;2.65;;;;;;;15.04;82.04;99549.94;5079794;28;20016;-79
2021/07/07 02:40:30;;;;;;;10.65;2.50;;;;;;;14.93;81.84;99537.59;5092629;28;20081;-81
2021/07/07 02:43:07;;;;;;;1.92;1.80;;;;;;;14.94;81.73;99539.22;5095953;28;20038;-81
2021/07/07 02:46:08;;;;;;;;;;;;;;;;;;;;;
2021/07/07 02:49:11;;;;;;;3.15;1.73;;;;;;;14.82;81.96;99532.34;5087343;28;20108;-82
2021/07/07 02:51:49;;;;;;;2.28;1.80;;;;;;;14.73;82.92;99531.47;5094719;28;20040;-83
2021/07/07 03:00:50;;;;;;;6.30;2.53;;;;;;;14.93;83.12;99549.41;5039197;28;20051;-77
2021/07/07 03:03:24;;;;;;;9.70;2.83;;;;;;;14.86;82.91;99542.72;5027023;28;20058;-78
2021/07/07 03:10:12;;;;;;;4.07;2.08;;;;;;;14.86;82.64;99553.75;4893345;29;20032;-78
2021/07/07 03:17:20;;;;;;;10.93;2.75;;;;;;;14.91;83.71;99567.34;4962341;28;20108;-78
2021/07/07 03:20:11;;;;;;;5.50;3.17;;;;;;;14.74;83.73;99549.63;4955941;28;20046;-79
2021/07/07 03:22:49;;;;;;;;;;;;;;;;;;;;;
2021/07/07 03:25:38;;;;;;;;;;;;;;;;;;;;;
2021/07/07 03:28:07;;;;;;;5.82;3.40;;;;;;;14.71;83.86;99550.25;5046866;28;20222;-78
2021/07/07 03:48:19;;;;;;;5.55;3.70;;;;;;;14.95;83.62;99579.34;4842197;29;20097;-78
2021/07/07 03:50:45;;;;;;;10.70;3.40;;;;;;;14.97;83.32;99590.88;4897225;29;20052;-78
2021/07/07 03:53:10;;;;;;;10.18;3.88;;;;;;;14.97;83.22;99594.44;4974725;28;20580;-77
2021/07/07 03:55:36;;;;;;;13.35;3.72;;;;;;;15.06;83.40;99607.44;5053538;28;20025;-78
2021/07/07 03:58:03;;;;;;;9.95;3.63;;;;;;;15.00;82.95;99587.50;5042129;28;20035;-79
2021/07/07 04:00:30;;;;;;;8.93;3.45;;;;;;;14.97;83.06;99588.13;5062731;28;20020;-77
2021/07/07 04:02:57;;;;;;;13.93;3.97;;;;;;;15.00;83.19;99604.00;5078388;28;20028;-77
2021/07/07 04:05:26;;;;;;;9.43;3.90;;;;;;;14.93;83.44;99592.63;5062755;28;20385;-77
2021/07/07 04:07:52;;;;;;;13.70;3.95;;;;;;;14.95;83.28;99601.38;5084603;28;20146;-77
2021/07/07 04:10:19;;;;;;;9.35;3.25;;;;;;;14.97;83.20;99607.41;5093188;28;20036;-76
2021/07/07 04:12:48;;;;;;;12.27;4.28;;;;;;;14.96;83.07;99609.31;5082595;28;20028;-76
2021/07/07 04:15:15;;;;;;;7.40;3.47;;;;;;;14.93;83.22;99603.66;5066811;28;20043;-77
2021/07/07 04:17:44;;;;;;;4.28;3.42;;;;;;;14.92;83.47;99608.34;5059722;28;20031;-77
2021/07/07 04:20:11;;;;;;;10.38;3.40;;;;;;;14.89;83.77;99602.66;5072925;28;20045;-77
2021/07/07 04:23:07;;;;;;;5.95;3.88;;;;;;;14.97;83.67;99607.41;5068508;28;20024;-77
2021/07/07 04:25:33;;;;;;;6.88;3.42;;;;;;;14.99;83.39;99616.94;5067769;28;20051;-77
2021/07/07 04:27:59;;;;;;;6.72;3.42;;;;;;;14.97;83.09;99621.16;5060809;28;20020;-75
2021/07/07 04:30:29;;;;;;;11.75;3.60;;;;;;;15.00;83.55;99617.78;5071282;28;20093;-76
2021/07/07 04:36:19;;;;;;;15.55;4.65;;;;;;;15.03;83.29;99622.66;1363458;26;20058;-77
2021/07/07 04:38:44;;;;;;;9.07;4.00;;;;;;;15.04;83.18;99612.44;4991049;28;20029;-76
2021/07/07 04:41:16;;;;;;;8.98;3.58;;;;;;;15.16;83.00;99640.22;4997185;28;20026;-75
2021/07/07 04:43:41;;;;;;;7.63;3.28;;;;;;;15.19;82.63;99640.38;4967864;28;20030;-75
2021/07/07 04:46:07;;;;;;;10.85;4.03;;;;;;;15.17;82.58;99648.16;4996461;28;20036;-75
2021/07/07 04:48:32;;;;;;;13.27;4.00;;;;;;;15.14;82.63;99636.94;4991941;28;20041;-74
2021/07/07 04:50:58;;;;;;;5.38;3.60;;;;;;;15.24;82.57;99644.13;4988631;28;20033;-76
2021/07/07 04:53:25;;;;;;;5.78;3.67;;;;;;;15.33;82.40;99650.50;4998124;28;20014;-78
2021/07/07 04:55:53;;;;;;;10.25;3.45;;;;;;;15.33;82.58;99645.81;4976677;28;20039;-77
2021/07/07 04:58:42;;;;;;;;;;;;;;;;;;;;;
2021/07/07 05:01:12;;;;;;;12.30;4.53;;;;;;;15.45;81.96;99658.16;4981370;28;20137;-76
2021/07/07 05:03:46;;;;;;;7.75;3.47;;;;;;;15.47;81.80;99658.66;4983190;28;20423;-75
2021/07/07 05:06:14;;;;;;;10.52;4.13;;;;;;;15.50;81.65;99667.09;5004071;28;20032;-77
2021/07/07 05:19:16;;;;;;;7.07;3.35;;;;;;;15.73;80.65;99677.25;4866122;29;20044;-77
2021/07/07 05:35:44;;;;;;;15.35;3.47;;;;;;;15.86;80.10;99690.94;4872339;29;20040;-77
2021/07/07 05:38:22;;;;;;;6.65;3.60;;;;;;;15.82;79.80;99684.44;4868661;29;24126;-77
2021/07/07 05:51:38;;;;;;;6.43;2.92;;;;;;;15.96;78.25;99689.00;4171539;26;20065;-76
2021/07/07 06:07:43;;;;;;;14.90;3.22;;;;;;;16.34;77.17;99716.03;5054310;28;20035;-75
2021/07/07 06:10:23;;;;;;;6.10;3.00;;;;;;;16.44;77.52;99715.75;5053599;28;20086;-79
2021/07/07 06:12:52;;;;;;;9.60;4.07;;;;;;;16.48;77.09;99716.72;5039035;28;20037;-76
2021/07/07 06:15:19;;;;;;;6.72;2.90;;;;;;;16.54;76.66;99723.72;5040957;28;20036;-76
2021/07/07 06:17:45;;;;;;;5.72;3.20;;;;;;;16.63;76.24;99717.38;5040814;28;20027;-76
2021/07/07 06:20:13;;;;;;;4.60;2.83;;;;;;;16.70;76.35;99712.19;5044549;28;20072;-75
2021/07/07 06:22:42;;;;;;;3.25;2.58;;;;;;;16.88;76.12;99741.47;5036910;28;20029;-75
2021/07/07 06:25:09;;;;;;;4.53;3.47;;;;;;;16.89;75.61;99731.22;5052809;28;20032;-77
2021/07/07 06:27:39;;;;;;;11.93;4.10;;;;;;;16.88;75.52;99735.09;5057219;28;20028;-76
2021/07/07 06:30:10;;;;;;;10.73;2.60;;;;;;;16.83;75.28;99725.00;5042402;28;20073;-75
2021/07/07 06:32:35;;;;;;;9.75;3.63;;;;;;;16.88;75.07;99735.94;5037031;28;20078;-76
2021/07/07 06:35:01;;;;;;;5.47;2.60;;;;;;;16.93;74.88;99737.72;5031435;28;20037;-76
2021/07/07 06:37:28;;;;;;;5.45;3.20;;;;;;;16.97;74.49;99744.22;5035468;28;20104;-76
2021/07/07 06:39:53;;;;;;;5.47;3.80;;;;;;;16.94;74.88;99731.06;5061164;28;20341;-75
2021/07/07 06:42:19;;;;;;;7.13;3.63;;;;;;;16.99;74.45;99752.97;5039028;28;20092;-76
2021/07/07 06:44:44;;;;;;;5.80;3.50;;;;;;;16.92;74.54;99747.13;5041610;28;20062;-77
2021/07/07 06:47:11;;;;;;;4.10;2.85;;;;;;;16.97;74.58;99737.84;5033657;28;20330;-76
2021/07/07 06:49:48;;;;;;;5.63;2.25;;;;;;;17.04;74.89;99740.94;5039431;28;20025;-77
2021/07/07 06:52:19;;;;;;;10.07;3.50;;;;;;;17.13;73.75;99758.34;5033383;28;20041;-76
2021/07/07 06:54:49;;;;;;;6.65;2.58;;;;;;;17.12;73.69;99756.72;4996597;28;20089;-76
2021/07/07 06:57:17;;;;;;;9.82;3.83;;;;;;;17.13;73.47;99763.03;5031789;28;20348;-80
2021/07/07 06:59:45;;;;;;;6.18;2.50;;;;;;;17.11;73.68;99766.13;5059467;28;20033;-76
2021/07/07 07:02:11;;;;;;;7.35;2.97;;;;;;;17.18;73.39;99771.97;5050567;28;20052;-76
2021/07/07 07:04:36;;;;;;;3.50;2.10;;;;;;;17.25;72.94;99761.25;5018343;28;20030;-76
2021/07/07 07:07:07;;;;;;;4.55;3.03;;;;;;;17.24;72.93;99754.09;5032034;28;20135;-76
2021/07/07 07:10:09;;;;;;;;;;;;;;;;;;;;;
2021/07/07 07:12:40;;;;;;;4.05;2.95;;;;;;;17.48;72.54;99785.94;5032386;28;20104;-76
2021/07/07 07:15:26;;;;;;;9.43;2.80;;;;;;;17.51;72.47;99779.75;5050094;28;20079;-77
2021/07/07 07:17:51;;;;;;;;;;;;;;;17.70;72.15;99793.19;5062880;28;20026;-77
2021/07/07 07:20:25;;;;;;;;;;;;;;;17.72;71.15;99790.09;5063066;28;19958;-75
2021/07/07 07:23:00;;;;;;;5.72;2.95;;;;;;;17.64;71.74;99800.03;5043732;28;20107;-77
2021/07/07 07:31:37;;;;;;;2.92;2.58;;;;;;;17.74;70.93;99788.63;5055346;28;20033;-76
2021/07/07 07:34:03;;;;;;;5.60;2.40;;;;;;;17.88;70.43;99813.28;5043783;28;20029;-77
2021/07/07 07:36:31;;;;;;;4.60;2.15;;;;;;;17.80;71.07;99800.31;5038144;28;20025;-76
2021/07/07 07:39:24;;;;;;;3.80;2.40;;;;;;;17.98;71.05;99798.34;5038301;28;20025;-75
2021/07/07 07:41:49;;;;;;;5.13;2.03;;;;;;;17.96;70.72;99795.09;5011927;28;20120;-77
2021/07/07 07:44:19;;;;;;;3.17;2.63;;;;;;;18.08;70.16;99809.03;5033595;28;20052;-76
2021/07/07 07:47:01;;;;;;;9.50;1.90;;;;;;;18.08;69.28;99794.41;5040128;28;20028;-77
2021/07/07 07:49:39;;;;;;;;;;;;;;;;;;;;;
2021/07/07 07:52:18;;;;;;;4.80;2.30;;;;;;;18.38;68.22;99833.97;5023053;28;20559;-77
2021/07/07 07:55:22;;;;;;;5.93;2.00;;;;;;;18.39;68.70;99832.03;5049508;28;20032;-76
2021/07/07 07:58:26;;;;;;;2.55;2.30;;;;;;;18.48;68.86;99843.84;5031213;28;20029;-76
2021/07/07 08:01:45;;;;;;;;;;;;;;;;;;;;;
2021/07/07 08:04:15;;;;;;;4.80;2.30;;;;;;;18.71;67.85;99824.19;5043481;28;20867;-78
2021/07/07 08:06:44;;;;;;;6.75;2.15;;;;;;;18.94;66.50;99847.69;5031643;28;20031;-76
2021/07/07 08:09:09;;;;;;;4.72;3.42;;;;;;;18.85;65.68;99846.88;5030755;28;20083;-78
2021/07/07 08:11:38;;;;;;;7.85;2.08;;;;;;;18.81;65.33;99841.22;5032325;28;20028;-77
2021/07/07 08:14:14;;;;;;;;;;;;;;;;;;;;;
2021/07/07 08:16:49;;;;;;;5.57;2.45;;;;;;;19.08;65.95;99854.94;5037742;28;20039;-77
2021/07/07 08:19:14;;;;;;;6.53;2.13;;;;;;;19.07;65.31;99842.22;5031694;28;20025;-77
2021/07/07 08:21:49;;;;;;;;;;;;;;;;;;;;;
2021/07/07 08:24:17;;;;;;;4.10;2.22;;;;;;;18.93;64.97;99840.53;5054242;28;20104;-76
2021/07/07 08:26:43;;;;;;;4.30;2.40;;;;;;;19.04;65.19;99848.44;5055887;28;20040;-76
2021/07/07 08:29:08;;;;;;;3.08;2.42;;;;;;;19.07;65.10;99853.28;5020946;28;20028;-78
2021/07/07 08:31:37;;;;;;;2.60;1.98;;;;;;;19.29;64.62;99860.47;5047775;28;20058;-77
2021/07/07 08:34:02;;;;;;;2.67;2.30;;;;;;;19.47;64.03;99861.13;5030796;28;20024;-77
2021/07/07 08:36:31;;;;;;;2.05;1.90;;;;;;;19.83;63.41;99843.84;5033905;28;20041;-77
2021/07/07 08:39:02;;;;;;;6.28;2.67;;;;;;;20.15;61.86;99873.84;5023351;28;20372;-76
2021/07/07 08:41:30;;;;;;;3.47;2.53;;;;;;;20.37;61.58;99869.81;5054750;28;20017;-77
2021/07/07 08:43:57;;;;;;;3.72;2.20;;;;;;;20.47;60.01;99852.72;5038120;28;20025;-77
2021/07/07 08:46:35;;;;;;;6.10;2.92;;;;;;;20.58;59.56;99866.97;5035055;28;20379;-76
2021/07/07 08:49:06;;;;;;;3.25;2.80;;;;;;;20.70;58.56;99871.72;5045602;28;20021;-75
2021/07/07 08:51:42;;;;;;;;;;;;;;;;;;;;;
2021/07/07 08:54:09;;;;;;;6.82;2.40;;;;;;;20.36;58.45;99857.13;5054203;28;20116;-76
2021/07/07 08:56:39;;;;;;;3.90;2.50;;;;;;;20.33;58.97;99886.38;5030404;28;20032;-77
2021/07/07 08:59:12;;;;;;;4.03;2.90;;;;;;;20.16;60.11;99875.47;5037389;28;20043;-78
2021/07/07 09:02:05;;;;;;;4.07;1.98;;;;;;;20.16;60.29;99892.13;5028161;28;20725;-76
2021/07/07 09:04:32;;;;;;;2.88;2.42;;;;;;;19.93;60.11;99873.13;5051310;28;20056;-77
2021/07/07 09:07:08;;;;;;;3.92;2.22;;;;;;;19.92;60.46;99868.72;5032631;28;20025;-76
2021/07/07 09:09:34;;;;;;;6.78;2.60;;;;;;;19.99;60.14;99882.84;5037352;28;20423;-77
2021/07/07 09:11:59;;;;;;;4.43;2.38;;;;;;;20.04;59.86;99882.63;5042312;28;20049;-76
2021/07/07 09:14:35;;;;;;;3.28;1.50;;;;;;;20.09;60.00;99880.78;5014376;28;20064;-76
2021/07/07 09:17:02;;;;;;;;;;;;;;;20.45;58.77;99893.09;5041143;28;20071;-77
2021/07/07 09:19:32;;;;;;;2.17;1.88;;;;;;;20.37;57.97;99889.25;5059582;28;19911;-77
2021/07/07 09:22:05;;;;;;;2.97;2.38;;;;;;;20.46;57.98;99894.72;5042371;28;20020;-77
2021/07/07 09:24:30;;;;;;;2.20;2.10;;;;;;;20.49;57.79;99883.72;5034187;28;20029;-76
2021/07/07 09:27:11;;;;;;;2.75;2.50;;;;;;;20.62;58.10;99912.31;5022988;28;20037;-78
2021/07/07 09:29:39;;;;;;;2.65;2.05;;;;;;;20.54;58.01;99889.03;5037192;28;20167;-77
2021/07/07 09:32:22;;;;;;;4.22;2.10;;;;;;;20.78;57.98;99901.38;5041549;28;20084;-77
2021/07/07 09:34:53;;;;;;;3.40;2.70;;;;;;;20.85;57.22;99906.31;5026119;28;20093;-77
2021/07/07 09:37:35;;;;;;;2.00;1.88;;;;;;;20.80;56.85;99895.47;5055365;28;20036;-77
2021/07/07 09:40:00;;;;;;;2.72;2.20;;;;;;;20.92;56.39;99915.72;5036906;28;20426;-77
2021/07/07 09:42:38;;;;;;;2.60;1.83;;;;;;;20.93;56.51;99908.19;5040801;28;20021;-77
2021/07/07 09:45:21;;;;;;;;;;;;;;;;;;;;;
2021/07/07 09:47:47;;;;;;;2.25;1.55;;;;;;;21.11;56.07;99903.16;5060916;28;20442;-76
2021/07/07 09:50:15;;;;;;;6.38;2.25;;;;;;;21.38;55.55;99920.28;5054431;28;20035;-76
2021/07/07 09:52:46;;;;;;;2.40;2.20;;;;;;;21.47;53.95;99950.75;5026070;28;20045;-77
2021/07/07 09:55:14;;;;;;;1.95;1.83;;;;;;;21.39;54.17;99925.50;5031657;28;20035;-76
2021/07/07 09:57:44;;;;;;;1.88;1.48;;;;;;;21.37;54.06;99927.78;5049642;28;20057;-76
2021/07/07 10:00:18;;;;;;;4.00;2.25;;;;;;;21.52;53.82;99942.16;5036585;28;20255;-77
2021/07/07 10:02:46;;;;;;;2.10;1.75;;;;;;;21.39;53.87;99917.16;5068345;28;20080;-76
2021/07/07 10:05:14;;;;;;;8.80;2.10;;;;;;;21.41;53.92;99923.16;5071583;28;20020;-77
2021/07/07 10:07:45;;;;;;;2.85;2.08;;;;;;;21.49;53.73;99923.38;5074295;28;20009;-77
2021/07/07 10:10:12;;;;;;;4.68;2.25;;;;;;;21.52;53.71;99917.13;5051112;28;20077;-75
2021/07/07 10:12:45;;;;;;;3.05;1.63;;;;;;;21.64;52.52;99935.75;5053792;28;20029;-76
2021/07/07 10:18:40;;;;;;;;;;;;;;;;;;;;;
2021/07/07 10:21:09;;;;;;;2.15;1.58;;;;;;;21.57;53.54;99958.63;5030619;28;20123;-76
2021/07/07 10:23:43;;;;;;;2.70;1.80;;;;;;;21.48;53.84;99932.88;5051626;28;20024;-76
2021/07/07 10:26:09;;;;;;;2.08;1.90;;;;;;;21.48;54.11;99942.03;5045533;28;20029;-75
2021/07/07 10:28:39;;;;;;;1.40;1.30;;;;;;;21.78;54.27;99959.22;5057105;28;20028;-76
2021/07/07 10:31:08;;;;;;;4.10;2.67;;;;;;;21.91;53.36;99965.56;5031068;28;20020;-76
2021/07/07 10:33:36;;;;;;;4.55;1.90;;;;;;;21.92;52.45;99958.03;5031119;28;20028;-77
2021/07/07 10:36:21;;;;;;;4.40;2.20;;;;;;;22.20;51.94;99996.19;5051783;28;20078;-77
2021/07/07 10:39:05;;;;;;;2.25;2.05;;;;;;;22.05;51.91;99967.94;5048105;28;20120;-76
2021/07/07 10:41:43;;;;;;;7.97;1.55;;;;;;;22.11;52.93;99977.66;5033513;28;20074;-77
2021/07/07 10:44:40;;;;;;;5.97;2.50;;;;;;;21.99;52.44;99997.22;5029827;28;20542;-76
2021/07/07 10:47:14;;;;;;;2.05;1.70;;;;;;;21.63;53.68;99985.03;5050068;28;20096;-76
2021/07/07 10:49:51;;;;;;;3.28;2.00;;;;;;;21.68;54.48;99986.75;5033350;28;20020;-76
2021/07/07 10:52:34;;;;;;;1.83;1.73;;;;;;;21.62;54.21;99966.72;5052980;28;20053;-76
2021/07/07 10:55:02;;;;;;;5.10;2.45;;;;;;;21.67;53.67;99985.94;5045961;28;20129;-74
2021/07/07 10:57:38;;;;;;;1.85;1.75;;;;;;;21.51;54.61;99990.59;5036002;28;20032;-76
2021/07/07 11:00:38;;;;;;;1.73;1.63;;;;;;;21.37;54.80;99994.53;5043289;28;20037;-76
2021/07/07 11:03:20;;;;;;;6.78;1.92;;;;;;;21.38;53.53;100001.72;5027443;28;20091;-76
2021/07/07 11:05:45;;;;;;;2.03;1.65;;;;;;;21.17;54.23;99984.38;5038142;28;20021;-76
2021/07/07 11:08:20;;;;;;;2.70;2.10;;;;;;;21.26;55.25;99999.78;5006380;28;20035;-75
2021/07/07 11:10:57;;;;;;;4.20;2.35;;;;;;;21.19;55.54;100021.00;5043948;28;20036;-76
2021/07/07 11:13:27;;;;;;;3.63;2.08;;;;;;;21.22;56.15;100009.16;5040155;28;20033;-76
2021/07/07 11:15:57;;;;;;;2.10;2.00;;;;;;;21.49;55.57;100015.16;5047019;28;20108;-77
2021/07/07 11:18:24;;;;;;;2.95;1.95;;;;;;;21.88;55.27;100013.59;5030895;28;20455;-76
2021/07/07 11:21:07;;;;;;;3.60;1.67;;;;;;;22.11;54.22;100010.28;5035389;28;20025;-75
2021/07/07 11:23:47;;;;;;;;;;;;;;;;;;;;;
2021/07/07 11:26:17;;;;;;;2.40;1.70;;;;;;;21.56;53.45;100020.97;5040865;28;20107;-76
2021/07/07 11:28:43;;;;;;;5.82;1.83;;;;;;;21.26;55.40;100004.50;5041812;28;20843;-76
2021/07/07 11:31:11;;;;;;;5.07;2.67;;;;;;;21.10;55.44;100012.75;5034166;28;20037;-75
2021/07/07 11:33:36;;;;;;;5.35;2.00;;;;;;;21.06;55.19;100011.84;5030600;28;20421;-76
2021/07/07 11:39:50;;;;;;;1.80;1.70;;;;;;;21.45;53.54;100029.78;5043031;28;20047;-76
2021/07/07 11:42:18;;;;;;;1.92;1.80;;;;;;;22.42;54.66;100039.41;5010387;28;20030;-75
2021/07/07 11:44:50;;;;;;;3.85;1.52;;;;;;;23.40;50.87;100023.97;5024109;28;20035;-75
2021/07/07 11:47:40;;;;;;;1.98;1.77;;;;;;;24.08;48.20;100047.03;5026090;28;20022;-76
2021/07/07 11:50:09;;;;;;;2.47;1.75;;;;;;;24.31;47.24;100015.56;5018570;28;20029;-75
2021/07/07 11:52:55;;;;;;;4.10;2.08;;;;;;;24.76;46.56;100033.59;5047266;28;20095;-76
2021/07/07 11:55:45;;;;;;;1.33;1.23;;;;;;;25.11;46.57;100040.97;5040593;28;20029;-76
2021/07/07 11:58:17;;;;;;;2.03;1.33;;;;;;;25.33;44.31;100038.56;5038163;28;20104;-77
2021/07/07 12:00:43;;;;;;;4.55;2.17;;;;;;;25.63;43.91;100027.41;5021749;28;20029;-77
2021/07/07 12:03:09;;;;;;;1.92;1.52;;;;;;;25.96;44.17;100040.66;5039889;28;20113;-77
2021/07/07 12:05:35;;;;;;;6.55;2.08;;;;;;;26.79;42.70;100030.41;5046299;28;20052;-77
2021/07/07 12:08:20;;;;;;;2.75;1.55;;;;;;;28.18;41.21;100045.00;5046020;28;20099;-77
2021/07/07 12:10:47;;;;;;;1.30;1.20;;;;;;;29.45;39.51;100043.22;5032100;28;20024;-77
2021/07/07 12:13:28;;;;;;;2.00;1.48;;;;;;;29.20;35.86;100049.63;5052196;28;20035;-76
2021/07/07 12:16:29;;;;;;;2.13;1.70;;;;;;;29.28;37.08;100054.09;5051323;28;20029;-77
2021/07/07 12:19:10;;;;;;;1.58;1.30;;;;;;;29.37;37.23;100045.25;5045968;28;20021;-76
2021/07/07 12:21:42;;;;;;;3.45;1.33;;;;;;;29.69;35.27;100056.44;5028637;28;20218;-77
2021/07/07 12:24:13;;;;;;;2.00;1.80;;;;;;;29.40;34.83;100053.66;5047785;28;20419;-76
2021/07/07 12:26:50;;;;;;;2.00;1.48;;;;;;;28.42;36.60;100051.13;5024508;28;20193;-76
2021/07/07 12:29:27;;;;;;;1.83;1.52;;;;;;;28.26;38.27;100057.91;5047657;28;20017;-75
2021/07/07 12:32:01;;;;;;;2.60;1.67;;;;;;;27.87;38.34;100058.50;5047705;28;20056;-75
2021/07/07 12:34:32;;;;;;;5.57;1.27;;;;;;;26.55;39.14;100044.97;5043889;28;20079;-76
2021/07/07 12:37:01;;;;;;;5.68;1.70;;;;;;;26.42;41.60;100055.66;5032710;28;20061;-75
2021/07/07 12:39:32;;;;;;;1.23;1.13;;;;;;;27.71;40.09;100055.19;5042619;28;20059;-75
2021/07/07 12:42:09;;;;;;;3.42;1.33;;;;;;;29.12;37.72;100056.47;5050061;28;20037;-74
2021/07/07 12:44:39;;;;;;;1.30;1.10;;;;;;;30.80;34.09;100063.63;5043227;28;20033;-76
2021/07/07 12:47:13;;;;;;;1.50;1.10;;;;;;;31.03;32.18;100059.47;5041545;28;20037;-76
2021/07/07 12:49:41;;;;;;;2.05;1.55;;;;;;;29.95;33.40;100062.84;5035507;28;20033;-75
2021/07/07 12:52:20;;;;;;;2.42;1.20;;;;;;;29.92;35.17;100087.00;5027237;28;20387;-76
2021/07/07 12:54:59;;;;;;;2.38;1.05;;;;;;;31.05;32.25;100071.16;5024948;28;20024;-76
2021/07/07 12:57:49;;;;;;;1.65;0.70;;;;;;;31.01;31.31;100061.91;5038477;28;20025;-76
2021/07/07 13:00:22;;;;;;;3.17;0.82;;;;;;;30.08;31.63;100061.19;5034332;28;20643;-76
2021/07/07 13:03:00;;;;;;;1.27;0.90;;;;;;;29.36;33.99;100074.59;5025810;28;20064;-76
2021/07/07 13:05:50;;;;;;;3.45;0.93;;;;;;;29.58;33.18;100081.00;5046795;28;20017;-77
2021/07/07 13:08:17;;;;;;;1.20;0.93;;;;;;;28.37;34.55;100081.25;5035702;28;20029;-76
2021/07/07 13:10:50;;;;;;;4.43;1.17;;;;;;;27.68;37.57;100085.66;5044203;28;20162;-76
2021/07/07 13:13:32;;;;;;;4.78;1.20;;;;;;;28.37;36.19;100098.09;5029724;28;20106;-77
2021/07/07 13:16:20;;;;;;;2.40;1.10;;;;;;;29.46;35.07;100089.88;5044850;28;20029;-77
2021/07/07 13:18:59;;;;;;;1.13;0.80;;;;;;;30.79;34.46;100076.13;5045149;28;20031;-76
2021/07/07 13:21:32;;;;;;;1.52;0.77;;;;;;;31.79;30.84;100090.69;5037409;28;20017;-80
2021/07/07 13:23:58;;;;;;;0.40;0.40;;;;;;;32.41;30.23;100093.59;5056122;28;20037;-79
2021/07/07 13:26:37;;;;;;;4.90;0.50;;;;;;;33.15;28.59;100092.94;5050619;28;20086;-78
2021/07/07 13:29:25;;;;;;;1.38;0.75;;;;;;;33.54;28.25;100096.34;5054961;28;20078;-79
2021/07/07 13:31:56;;;;;;;1.17;0.60;;;;;;;34.08;27.90;100087.66;5060992;28;20020;-79
2021/07/07 13:34:22;;;;;;;0.70;0.45;;;;;;;34.29;26.81;100107.53;5049035;28;20030;-80
2021/07/07 13:36:47;;;;;;;0.70;0.60;;;;;;;34.53;26.41;100094.81;5045903;28;20043;-79
2021/07/07 13:39:13;;;;;;;1.10;0.60;;;;;;;34.01;26.08;100096.31;5038610;28;20111;-80
2021/07/07 13:41:39;;;;;;;0.70;0.70;;;;;;;32.75;27.98;100089.91;5038650;28;20064;-80
2021/07/07 13:44:05;;;;;;;1.90;0.68;;;;;;;32.04;29.05;100083.94;5033086;28;20053;-79
2021/07/07 13:46:31;;;;;;;1.17;0.50;;;;;;;31.33;30.31;100087.03;5056164;28;20056;-80
2021/07/07 13:49:01;;;;;;;1.95;0.30;;;;;;;31.47;31.01;100094.59;5034135;28;20112;-79
2021/07/07 13:51:27;;;;;;;0.77;0.30;;;;;;;32.12;29.81;100085.47;5042974;28;20037;-79
2021/07/07 13:53:53;;;;;;;1.90;0.38;;;;;;;31.80;29.46;100114.88;5034619;28;20041;-80
2021/07/07 13:56:18;;;;;;;0.82;0.50;;;;;;;30.65;30.41;100090.34;5041699;28;20111;-79
2021/07/07 13:58:44;;;;;;;1.83;0.50;;;;;;;29.40;32.92;100089.47;5037563;28;20094;-79
2021/07/07 14:01:11;;;;;;;0.57;0.50;;;;;;;29.31;34.14;100106.78;5058765;28;20044;-79